Nearby METAR Reports

 

KSJC - San Jose, California, USA
Distance from station: NE 9mi, 14km
Updated: Sun, 11-Apr-2021 12:53pm MDT
Mostly cloudy
Mostly cloudy
 Wind from NNW
Wind: NNW 3 mph , 6 km/h
Temperature: 63°F , 17°C
Dew Point: 39°F , 4°C
Humidity: 42%
Barometer: 29.93 inHg , 1013.5 hPa
Clouds: Mostly cloudy
Visibility: 10 miles , 16 km
Cloud details: Few Clouds 6000 ft
Partly cloudy 12000 ft
Mostly cloudy 20000 ft
2021/04/11 18:53 KSJC 111853Z 34003KT 10SM FEW060 SCT120 BKN200 17/04 A2993 RMK AO2 SLP134 T01670039
KNUQ - Moffett Nas/Mtn, California, USA
Distance from station: N 9mi, 14km
Updated: Sun, 11-Apr-2021 12:50pm MDT

 
2021/04/11 18:50 KNUQ 111850Z AUTO RMK AO2 PNO PWINO TSNO
 
KPAO - Palo Alto, California, USA
Distance from station: NNW 14mi, 23km
Updated: Sun, 11-Apr-2021 12:47pm MDT
Clear
Clear
 Wind from varies
Wind: varies 7 mph , 11 km/h
Temperature: 57°F , 14°C
Dew Point: 45°F , 7°C
Humidity: 63%
Barometer: 29.94 inHg , 1013.9 hPa
Clouds: Clear
Visibility: 10 miles , 16 km
2021/04/11 18:47 KPAO 111847Z VRB06KT 10SM SKC 14/07 A2994
KRHV - San Jose/Reid, California, USA
Distance from station: ENE 12mi, 19km
Updated: Sun, 11-Apr-2021 12:47pm MDT
Mostly cloudy
Mostly cloudy
 Wind from calm
Wind: Calm
Temperature: 63°F , 17°C
Dew Point: 41°F , 5°C
Humidity: 45%
Barometer: 29.94 inHg , 1013.9 hPa
Clouds: Mostly cloudy
Visibility: 10 miles , 16 km
Cloud details: Mostly cloudy 18000 ft
2021/04/11 18:47 KRHV 111847Z 00000KT 10SM BKN180 17/05 A2994
 
KOAK - Oakland, California, USA
Distance from station: NNW 31mi, 50km
Updated: Sun, 11-Apr-2021 12:53pm MDT
Mostly cloudy
Mostly cloudy
 Wind from WSW
Wind: WSW 5 mph , 7 km/h
Temperature: 57°F , 14°C
Dew Point: 45°F , 7°C
Humidity: 63%
Barometer: 29.95 inHg , 1014.2 hPa
Clouds: Mostly cloudy
Visibility: 10 miles , 16 km
Cloud details: Mostly cloudy 25000 ft
2021/04/11 18:53 KOAK 111853Z 24004KT 10SM BKN250 14/07 A2995 RMK AO2 SLP142 T01390072
KSQL - San Carlos Airpo, California, USA
Distance from station: NW 21mi, 34km
Updated: Sun, 11-Apr-2021 12:47pm MDT
Few Clouds
Few Clouds
 Wind from N
Wind: N 8 mph , 13 km/h
Temperature: 57°F , 14°C
Dew Point: 48°F , 9°C
Humidity: 72%
Barometer: 29.95 inHg , 1014.2 hPa
Clouds: Few Clouds
Visibility: 10 miles , 16 km
Cloud details: Few Clouds 12000 ft
2021/04/11 18:47 KSQL 111847Z 01007KT 10SM FEW120 14/09 A2995
 
KSFO - San Francisco, California, USA
Distance from station: NW 30mi, 49km
Updated: Sun, 11-Apr-2021 12:56pm MDT
Partly cloudy
Partly cloudy
 Wind from E
Wind: E 7 mph , 11 km/h
Temperature: 61°F , 16°C
Dew Point: 46°F , 8°C
Humidity: 59%
Barometer: 29.93 inHg , 1013.5 hPa
Clouds: Partly cloudy
Visibility: 10 miles , 16 km
Cloud details: Partly cloudy 20000 ft
2021/04/11 18:56 KSFO 111856Z 09006KT 10SM SCT200 16/08 A2993 RMK AO2 SLP135 T01560078
KE16 - San Martin, California, USA
Distance from station: ESE 27mi, 43km
Updated: Sun, 11-Apr-2021 12:55pm MDT
Clear
Clear
 Wind from WNW
Wind: WNW 5 mph , 7 km/h
Temperature: 61°F , 16°C
Dew Point: 41°F , 5°C
Humidity: 48%
Barometer: 29.93 inHg , 1013.5 hPa
Clouds: Clear
Visibility: 10 miles , 16 km
2021/04/11 18:55 KE16 111855Z AUTO 30004KT 10SM CLR 16/05 A2993 RMK AO2 PWINO PNO
 
KWVI - Watsonville, California, USA
Distance from station: SSE 27mi, 44km
Updated: Sun, 11-Apr-2021 12:53pm MDT
Clear
Clear
 Wind from calm
Wind: Calm
Temperature: 59°F , 15°C
Dew Point: 46°F , 8°C
Humidity: 63%
Barometer: 29.94 inHg , 1013.9 hPa
Clouds: Clear
Visibility: 10 miles , 16 km
2021/04/11 18:53 KWVI 111853Z AUTO 00000KT 10SM CLR 15/08 A2994 RMK AO2 SLP137 T01500083
KHAF - Half Moon Bay, California, USA
Distance from station: WNW 31mi, 50km
Updated: Sun, 11-Apr-2021 12:55pm MDT
Haze, Clear
Haze, Clear
 Wind from NW
Wind: NW 13 mph , 20 km/h
Temperature: 52°F , 11°C
Dew Point: 46°F , 8°C
Humidity: 82%
Barometer: 29.96 inHg , 1014.6 hPa
Summary: Haze
Clouds: Clear
Visibility: 3 miles , 5 km
2021/04/11 18:55 KHAF 111855Z AUTO 31011KT 3SM HZ CLR 11/08 A2996 RMK AO2
 
KHWD - Hayward, California, USA
Distance from station: N 28mi, 44km
Updated: Sun, 11-Apr-2021 12:54pm MDT
Clear
Clear
 Wind from W
Wind: W 6 mph , 9 km/h
Temperature: 61°F , 16°C
Dew Point: 43°F , 6°C
Humidity: 52%
Barometer: 29.94 inHg , 1013.9 hPa
Clouds: Clear
Visibility: 10 miles , 16 km
2021/04/11 18:54 KHWD 111854Z 28005KT 10SM CLR 16/06 A2994 RMK AO2 SLP147 T01560056
KLVK - Livermore, California, USA
Distance from station: NNE 31mi, 51km
Updated: Sun, 11-Apr-2021 12:53pm MDT
Clear
Clear
 Wind from calm
Wind: Calm
Temperature: 64°F , 18°C
Dew Point: 39°F , 4°C
Humidity: 40%
Barometer: 29.91 inHg , 1012.9 hPa
Clouds: Clear
Visibility: 10 miles , 16 km
2021/04/11 18:53 KLVK 111853Z 00000KT 10SM CLR 18/04 A2991 RMK AO2 SLP127 T01830044